Time;durP1;ratioP1;P1;durP2;ratioP2;P2;SDS_P1;SDS_P2;PMS_P1;PMS_P2;Temp;Humidity;BMP_temperature;BMP_pressure;BME280_temperature;BME280_humidity;BME280_pressure;Samples;Min_cycle;Max_cycle;Signal;HPM_P1;HPM_P2
2024/03/05 00:00:31;;;;;;;35.33;20.20;;;;;;;9.78;100.00;99512.13;5091800;28;20109;-45
2024/03/05 00:02:59;;;;;;;33.17;20.02;;;;;;;9.74;100.00;99514.13;5092247;28;20094;-46
2024/03/05 00:05:29;;;;;;;32.67;18.58;;;;;;;9.61;100.00;99505.28;5092580;28;20048;-45
2024/03/05 00:07:58;;;;;;;36.45;19.27;;;;;;;9.64;100.00;99510.38;5091733;28;20040;-44
2024/03/05 00:10:26;;;;;;;39.40;19.92;;;;;;;9.71;100.00;99504.53;5091789;28;20044;-46
2024/03/05 00:12:56;;;;;;;34.38;19.02;;;;;;;9.72;100.00;99502.72;5090767;28;20469;-45
2024/03/05 00:15:26;;;;;;;34.83;19.08;;;;;;;9.73;100.00;99510.63;5091976;28;20390;-44
2024/03/05 00:17:55;;;;;;;33.45;19.27;;;;;;;9.74;100.00;99507.00;5092076;28;20604;-45
2024/03/05 00:20:23;;;;;;;37.03;19.25;;;;;;;9.74;100.00;99514.13;5091783;28;20090;-45
2024/03/05 00:22:52;;;;;;;30.13;18.75;;;;;;;9.71;100.00;99515.19;5091743;28;20071;-45
2024/03/05 00:25:21;;;;;;;33.55;19.35;;;;;;;9.72;100.00;99524.03;5091622;28;20044;-45
2024/03/05 00:27:49;;;;;;;36.67;19.75;;;;;;;9.62;100.00;99515.81;5091287;28;20047;-46
2024/03/05 00:30:20;;;;;;;36.92;20.02;;;;;;;9.70;100.00;99518.81;5091251;28;20059;-46
2024/03/05 00:32:49;;;;;;;32.78;19.35;;;;;;;9.69;100.00;99517.13;5091208;28;20462;-45
2024/03/05 00:35:17;;;;;;;36.13;19.83;;;;;;;9.52;100.00;99512.06;5090944;28;20048;-44
2024/03/05 00:37:46;;;;;;;37.55;20.85;;;;;;;9.25;100.00;99512.09;5091380;28;20056;-46
2024/03/05 00:40:14;;;;;;;45.03;23.65;;;;;;;9.22;100.00;99511.47;5091250;28;20044;-45
2024/03/05 00:42:43;;;;;;;41.72;23.52;;;;;;;9.14;100.00;99515.47;5091063;28;20066;-45
2024/03/05 00:45:12;;;;;;;42.33;24.33;;;;;;;9.21;100.00;99515.09;5090922;28;20059;-47
2024/03/05 00:47:42;;;;;;;42.22;24.33;;;;;;;9.26;100.00;99516.47;5090860;28;20091;-46
2024/03/05 00:50:13;;;;;;;43.70;25.02;;;;;;;9.40;100.00;99510.25;5090977;28;20090;-45
2024/03/05 00:52:42;;;;;;;41.75;23.40;;;;;;;9.41;100.00;99511.94;5091091;28;20455;-46
2024/03/05 00:55:10;;;;;;;38.78;23.50;;;;;;;9.43;100.00;99510.88;5090997;28;20062;-46
2024/03/05 00:57:38;;;;;;;41.58;22.85;;;;;;;9.44;100.00;99511.72;5091023;28;20056;-45
2024/03/05 01:00:08;;;;;;;39.80;24.13;;;;;;;9.42;100.00;99514.50;5090916;28;20048;-45
2024/03/05 01:02:37;;;;;;;41.22;24.50;;;;;;;9.40;100.00;99512.91;5090929;28;20135;-46
2024/03/05 01:05:09;;;;;;;40.50;23.55;;;;;;;9.46;100.00;99515.16;5090895;28;20047;-45
2024/03/05 01:07:38;;;;;;;37.92;22.52;;;;;;;9.49;100.00;99514.94;5091034;28;20044;-45
2024/03/05 01:10:08;;;;;;;39.60;24.45;;;;;;;9.52;100.00;99520.06;5090718;28;20047;-45
2024/03/05 01:12:37;;;;;;;37.70;22.58;;;;;;;9.65;100.00;99514.75;5090622;28;20398;-46
2024/03/05 01:15:06;;;;;;;42.78;23.38;;;;;;;9.50;100.00;99511.34;5090754;28;20067;-45
2024/03/05 01:17:34;;;;;;;40.83;23.58;;;;;;;9.53;100.00;99515.59;5090839;28;20048;-46
2024/03/05 01:20:03;;;;;;;42.60;23.88;;;;;;;9.50;100.00;99510.47;5090628;28;20044;-44
2024/03/05 01:22:33;;;;;;;39.03;23.10;;;;;;;9.50;100.00;99521.13;5090607;28;20055;-45
2024/03/05 01:25:01;;;;;;;37.80;22.48;;;;;;;9.51;100.00;99515.69;5091021;28;20044;-44
2024/03/05 01:27:30;;;;;;;38.83;24.00;;;;;;;9.44;100.00;99520.56;5090773;28;20076;-46
2024/03/05 01:29:59;;;;;;;40.60;23.15;;;;;;;9.47;100.00;99516.88;5090721;28;20113;-45
2024/03/05 01:32:29;;;;;;;41.13;23.42;;;;;;;9.45;100.00;99510.78;5090747;28;20044;-44
2024/03/05 01:34:57;;;;;;;39.42;23.20;;;;;;;9.41;100.00;99517.28;5090705;28;20033;-47
2024/03/05 01:37:26;;;;;;;40.88;24.23;;;;;;;9.33;100.00;99508.94;5090749;28;20074;-44
2024/03/05 01:39:56;;;;;;;38.47;23.60;;;;;;;9.31;100.00;99510.88;5090478;28;20055;-46
2024/03/05 01:42:24;;;;;;;42.72;23.60;;;;;;;9.25;100.00;99506.78;5092228;28;20048;-45
2024/03/05 01:44:52;;;;;;;39.47;23.85;;;;;;;9.22;100.00;99516.78;5094502;28;20141;-47
2024/03/05 01:47:21;;;;;;;40.95;24.58;;;;;;;9.22;100.00;99516.78;5094600;28;20117;-46
2024/03/05 01:49:49;;;;;;;39.63;24.52;;;;;;;9.28;100.00;99513.75;5094927;28;20043;-45
2024/03/05 01:52:18;;;;;;;42.60;24.42;;;;;;;9.33;100.00;99520.44;5094725;28;20070;-46
2024/03/05 01:54:47;;;;;;;42.38;24.70;;;;;;;9.30;100.00;99517.16;5094454;28;20052;-44
2024/03/05 01:57:17;;;;;;;43.05;24.35;;;;;;;9.25;100.00;99517.44;5095037;28;20059;-44
2024/03/05 01:59:45;;;;;;;39.35;25.38;;;;;;;9.27;100.00;99514.69;5094521;28;20044;-44
2024/03/05 02:02:30;;;;;;;38.05;23.38;;;;;;;9.17;100.00;99515.31;5150182;27;20390;-46
2024/03/05 02:04:59;;;;;;;42.72;24.45;;;;;;;9.19;100.00;99512.53;5150654;27;20047;-46
2024/03/05 02:07:28;;;;;;;41.30;24.95;;;;;;;9.19;100.00;99509.88;5150182;27;20065;-44
2024/03/05 02:09:58;;;;;;;44.50;24.67;;;;;;;9.07;100.00;99508.88;5150395;27;20133;-45
2024/03/05 02:12:26;;;;;;;40.78;24.45;;;;;;;9.13;100.00;99513.78;5150369;27;20051;-45
2024/03/05 02:14:56;;;;;;;48.30;25.92;;;;;;;9.14;100.00;99512.81;5150235;27;20114;-46
2024/03/05 02:17:25;;;;;;;45.88;24.90;;;;;;;9.12;100.00;99509.41;5149998;27;20051;-45
2024/03/05 02:19:55;;;;;;;48.65;25.92;;;;;;;8.89;100.00;99502.09;5149950;27;20062;-45
2024/03/05 02:22:27;;;;;;;45.25;24.83;;;;;;;8.96;100.00;99511.38;5150113;27;20058;-47
2024/03/05 02:24:55;;;;;;;43.30;25.52;;;;;;;9.01;100.00;99514.59;5150031;27;20545;-44
2024/03/05 02:27:24;;;;;;;50.00;25.73;;;;;;;8.94;100.00;99512.44;5149897;27;20091;-46
2024/03/05 02:30:02;;;;;;;42.30;22.27;;;;;;;8.72;100.00;99519.13;5149909;27;20043;-45
2024/03/05 02:32:31;;;;;;;37.95;21.92;;;;;;;8.88;100.00;99524.34;5149547;27;20515;-45
2024/03/05 02:35:00;;;;;;;37.17;20.10;;;;;;;8.86;100.00;99534.19;5149469;27;20122;-45
2024/03/05 02:37:30;;;;;;;35.08;20.45;;;;;;;8.69;100.00;99535.28;5149543;27;20392;-47
2024/03/05 02:39:58;;;;;;;31.45;18.67;;;;;;;8.65;100.00;99541.75;5149504;27;20477;-46
2024/03/05 02:42:27;;;;;;;29.45;18.40;;;;;;;8.67;100.00;99541.63;5149154;27;20054;-46
2024/03/05 02:44:55;;;;;;;35.80;20.63;;;;;;;8.69;100.00;99542.41;5149215;27;20039;-46
2024/03/05 02:47:24;;;;;;;33.47;19.65;;;;;;;8.67;100.00;99542.50;5149049;27;20131;-45
2024/03/05 02:49:52;;;;;;;35.28;19.17;;;;;;;8.55;100.00;99546.78;5149331;27;20113;-45
2024/03/05 02:52:21;;;;;;;35.70;18.95;;;;;;;8.60;100.00;99536.72;5149222;27;20051;-45
2024/03/05 02:54:51;;;;;;;31.90;18.50;;;;;;;8.60;100.00;99542.03;5149269;27;20197;-44
2024/03/05 02:57:19;;;;;;;34.28;18.70;;;;;;;8.59;100.00;99544.81;5148887;27;20043;-45
2024/03/05 02:59:51;;;;;;;34.25;19.45;;;;;;;8.63;100.00;99540.13;5149040;27;20051;-45
2024/03/05 03:02:21;;;;;;;36.70;19.55;;;;;;;8.60;100.00;99542.03;5148662;27;20058;-44
2024/03/05 03:04:51;;;;;;;33.17;19.83;;;;;;;8.63;100.00;99545.47;5149186;27;20047;-45
2024/03/05 03:07:19;;;;;;;31.92;19.35;;;;;;;8.52;100.00;99546.13;5148619;27;20138;-45
2024/03/05 03:09:48;;;;;;;31.92;19.60;;;;;;;8.54;100.00;99542.41;5148885;27;20050;-46
2024/03/05 03:12:18;;;;;;;31.83;19.42;;;;;;;8.65;100.00;99538.22;5143707;27;20074;-45
2024/03/05 03:14:46;;;;;;;33.78;20.13;;;;;;;8.67;100.00;99546.97;5135090;27;20043;-46
2024/03/05 03:17:15;;;;;;;34.33;20.23;;;;;;;8.78;100.00;99539.16;5134975;27;20039;-46
2024/03/05 03:19:46;;;;;;;35.25;20.27;;;;;;;8.88;100.00;99550.94;5134953;27;20078;-45
2024/03/05 03:22:15;;;;;;;35.20;20.33;;;;;;;8.94;100.00;99541.69;5134601;27;20548;-45
2024/03/05 03:24:43;;;;;;;39.13;21.58;;;;;;;8.98;100.00;99541.41;5134486;27;20043;-46
2024/03/05 03:27:12;;;;;;;33.17;20.13;;;;;;;8.76;100.00;99547.22;5134584;27;20138;-45
2024/03/05 03:29:41;;;;;;;37.30;20.45;;;;;;;8.77;100.00;99546.28;5134708;27;20051;-45
2024/03/05 03:32:11;;;;;;;37.10;21.02;;;;;;;8.80;100.00;99547.91;5134575;27;20047;-45
2024/03/05 03:34:41;;;;;;;35.63;20.92;;;;;;;8.83;100.00;99547.69;5134579;27;20424;-45
2024/03/05 03:37:09;;;;;;;37.55;21.67;;;;;;;8.90;100.00;99559.66;5134319;27;20039;-45
2024/03/05 03:39:37;;;;;;;35.50;21.52;;;;;;;9.02;100.00;99556.19;5134397;27;20090;-47
2024/03/05 03:42:06;;;;;;;32.80;20.83;;;;;;;9.07;100.00;99563.88;5134339;27;20088;-45
2024/03/05 03:44:35;;;;;;;37.17;21.88;;;;;;;9.08;100.00;99557.63;5134264;27;20408;-46
2024/03/05 03:47:05;;;;;;;41.95;22.67;;;;;;;9.02;100.00;99561.53;5134310;27;20051;-45
2024/03/05 03:49:35;;;;;;;36.53;21.50;;;;;;;9.00;100.00;99559.91;5134316;27;20065;-47
2024/03/05 03:52:05;;;;;;;40.40;21.48;;;;;;;8.65;100.00;99570.13;5134008;27;20145;-44
2024/03/05 03:54:33;;;;;;;35.65;21.30;;;;;;;8.58;100.00;99574.97;5134158;27;20097;-45
2024/03/05 03:57:02;;;;;;;40.17;22.30;;;;;;;8.28;100.00;99575.03;5133991;27;20548;-45
2024/03/05 03:59:30;;;;;;;37.55;22.60;;;;;;;8.55;100.00;99576.03;5133997;27;20039;-45
2024/03/05 04:01:59;;;;;;;36.95;22.08;;;;;;;8.44;100.00;99578.50;5133554;27;20055;-45
2024/03/05 04:04:29;;;;;;;46.80;23.95;;;;;;;8.38;100.00;99578.00;5133734;27;20192;-45
2024/03/05 04:06:57;;;;;;;38.58;21.80;;;;;;;8.64;100.00;99576.41;5134094;27;20051;-46
2024/03/05 04:09:26;;;;;;;35.00;22.40;;;;;;;8.59;100.00;99580.22;5133859;27;20047;-46
2024/03/05 04:11:54;;;;;;;39.85;21.55;;;;;;;8.74;100.00;99580.19;5133700;27;20055;-46
2024/03/05 04:14:23;;;;;;;39.20;22.95;;;;;;;8.66;100.00;99579.81;5133609;27;20039;-45
2024/03/05 04:16:52;;;;;;;39.90;22.13;;;;;;;8.72;100.00;99579.44;5133540;27;20495;-46
2024/03/05 04:19:20;;;;;;;41.78;24.10;;;;;;;8.84;100.00;99570.69;5133740;27;20080;-45
2024/03/05 04:21:50;;;;;;;37.22;22.55;;;;;;;8.69;100.00;99567.19;5133337;27;20051;-44
2024/03/05 04:24:20;;;;;;;37.58;21.95;;;;;;;8.63;100.00;99578.22;5132548;27;20049;-44
2024/03/05 04:26:52;;;;;;;34.65;21.40;;;;;;;8.73;100.00;99576.69;5133265;27;20437;-43
2024/03/05 04:29:29;;;;;;;35.75;21.73;;;;;;;8.92;100.00;99567.53;5133298;27;20389;-44
2024/03/05 04:32:08;;;;;;;38.15;22.75;;;;;;;8.81;100.00;99573.53;5133311;27;20132;-47
2024/03/05 04:34:40;;;;;;;37.40;22.17;;;;;;;8.86;100.00;99574.09;5133401;27;20146;-46
2024/03/05 04:37:10;;;;;;;41.00;23.77;;;;;;;8.89;100.00;99571.25;5133437;27;20054;-46
2024/03/05 04:39:42;;;;;;;41.10;22.10;;;;;;;8.92;100.00;99568.38;5133198;27;20043;-45
2024/03/05 04:42:11;;;;;;;42.70;24.30;;;;;;;8.93;100.00;99569.22;5132977;27;20135;-45
2024/03/05 04:44:42;;;;;;;40.08;22.90;;;;;;;8.88;100.00;99570.41;5133266;27;20039;-46
2024/03/05 04:47:11;;;;;;;40.50;23.52;;;;;;;8.96;100.00;99575.19;5132988;27;20043;-47
2024/03/05 04:49:39;;;;;;;35.38;22.13;;;;;;;9.05;100.00;99571.94;5132956;27;20053;-44
2024/03/05 04:52:09;;;;;;;39.22;22.08;;;;;;;9.02;100.00;99565.97;5132837;27;20111;-45
2024/03/05 04:54:39;;;;;;;38.13;23.55;;;;;;;9.08;100.00;99563.78;5132703;27;20043;-43
2024/03/05 04:57:08;;;;;;;39.92;22.38;;;;;;;9.04;100.00;99577.38;5132947;27;20047;-46
2024/03/05 04:59:36;;;;;;;41.55;22.67;;;;;;;8.99;100.00;99574.19;5132914;27;20579;-46
2024/03/05 05:02:05;;;;;;;38.35;23.70;;;;;;;9.03;100.00;99571.19;5132414;27;20054;-44
2024/03/05 05:04:37;;;;;;;39.85;22.60;;;;;;;9.03;100.00;99573.88;5132865;27;20047;-45
2024/03/05 05:07:07;;;;;;;36.90;21.95;;;;;;;9.08;100.00;99574.44;5132437;27;20043;-45
2024/03/05 05:09:36;;;;;;;39.78;22.13;;;;;;;9.16;100.00;99572.09;5132695;27;20059;-46
2024/03/05 05:12:06;;;;;;;37.65;22.73;;;;;;;9.04;100.00;99570.25;5133344;27;20053;-46
2024/03/05 05:14:35;;;;;;;38.45;22.77;;;;;;;9.03;100.00;99573.88;5133761;27;20047;-46
2024/03/05 05:17:06;;;;;;;40.90;22.45;;;;;;;9.06;100.00;99581.63;5133028;27;20402;-45
2024/03/05 05:19:34;;;;;;;38.90;23.52;;;;;;;9.10;100.00;99582.31;5132237;27;20039;-45
2024/03/05 05:22:02;;;;;;;40.78;22.45;;;;;;;9.13;100.00;99582.94;5132148;27;20078;-45
2024/03/05 05:24:31;;;;;;;36.00;22.42;;;;;;;9.14;100.00;99581.16;5132600;27;20078;-44
2024/03/05 05:26:59;;;;;;;38.60;23.33;;;;;;;9.15;100.00;99574.88;5132426;27;20129;-46
2024/03/05 05:29:28;;;;;;;39.78;22.33;;;;;;;9.21;100.00;99586.94;5132211;27;20404;-47
2024/03/05 05:32:09;;;;;;;37.72;22.63;;;;;;;9.27;100.00;99583.88;5132004;27;20043;-44
2024/03/05 05:34:37;;;;;;;38.20;21.35;;;;;;;9.30;100.00;99586.34;5132156;27;20050;-46
2024/03/05 05:37:06;;;;;;;39.30;23.13;;;;;;;9.33;100.00;99589.63;5131899;27;20121;-46
2024/03/05 05:39:34;;;;;;;38.78;24.30;;;;;;;9.31;100.00;99591.56;5132407;27;20075;-45
2024/03/05 05:42:03;;;;;;;44.92;25.77;;;;;;;9.17;100.00;99588.94;5131975;27;20082;-44
2024/03/05 05:44:32;;;;;;;47.75;25.05;;;;;;;9.18;100.00;99607.47;5131840;27;20462;-45
2024/03/05 05:47:03;;;;;;;43.88;23.50;;;;;;;9.20;100.00;99609.19;5131791;27;20521;-44
2024/03/05 05:49:32;;;;;;;45.67;23.55;;;;;;;9.24;100.00;99602.69;5132152;27;20043;-44
2024/03/05 05:52:01;;;;;;;48.70;26.33;;;;;;;9.23;100.00;99614.28;5132010;27;20506;-47
2024/03/05 05:54:29;;;;;;;49.17;25.33;;;;;;;9.01;100.00;99618.34;5131910;27;20062;-44
2024/03/05 05:56:57;;;;;;;38.90;24.05;;;;;;;8.92;100.00;99607.44;5131742;27;20074;-47
2024/03/05 05:59:26;;;;;;;43.75;25.05;;;;;;;9.03;100.00;99608.44;5131909;27;20130;-46
2024/03/05 06:01:56;;;;;;;43.83;24.42;;;;;;;8.95;100.00;99615.19;5131175;28;20075;-44
2024/03/05 06:04:25;;;;;;;43.15;24.23;;;;;;;9.10;100.00;99615.09;5131243;28;20051;-45
2024/03/05 06:06:54;;;;;;;38.60;23.75;;;;;;;9.04;100.00;99617.28;5131856;27;20122;-46
2024/03/05 06:09:28;;;;;;;42.95;23.48;;;;;;;9.11;100.00;99614.13;5131771;28;20130;-45
2024/03/05 06:11:56;;;;;;;40.05;22.75;;;;;;;9.23;100.00;99608.97;5131641;27;20044;-45
2024/03/05 06:14:24;;;;;;;41.17;24.02;;;;;;;9.29;100.00;99614.75;5131900;27;20039;-44
2024/03/05 06:16:55;;;;;;;41.60;23.48;;;;;;;9.42;100.00;99620.97;5131796;27;20096;-46
2024/03/05 06:19:24;;;;;;;37.03;22.58;;;;;;;9.47;100.00;99618.03;5131626;28;20483;-47
2024/03/05 06:21:55;;;;;;;41.83;23.05;;;;;;;9.41;100.00;99623.75;5131503;27;20043;-47
2024/03/05 06:24:23;;;;;;;42.55;23.73;;;;;;;9.45;100.00;99614.59;5131433;27;20050;-46
2024/03/05 06:26:51;;;;;;;43.60;24.20;;;;;;;9.48;100.00;99618.88;5131446;27;20078;-45
2024/03/05 06:29:20;;;;;;;41.15;24.35;;;;;;;9.62;100.00;99626.81;5131841;27;20083;-45
2024/03/05 06:31:49;;;;;;;39.75;23.10;;;;;;;9.64;100.00;99623.06;5131636;27;20044;-45
2024/03/05 06:34:19;;;;;;;38.88;23.08;;;;;;;9.69;100.00;99626.31;5131965;28;20054;-45
2024/03/05 06:36:53;;;;;;;45.90;24.30;;;;;;;9.59;100.00;99633.19;5131562;27;20048;-46
2024/03/05 06:39:29;;;;;;;41.80;23.83;;;;;;;9.64;100.00;99630.22;5131880;27;20047;-47
2024/03/05 06:41:58;;;;;;;43.05;24.48;;;;;;;9.58;100.00;99626.16;5131627;27;20051;-46
2024/03/05 06:44:35;;;;;;;37.55;22.60;;;;;;;9.65;100.00;99627.47;5131639;27;20047;-49
2024/03/05 06:47:05;;;;;;;42.22;24.02;;;;;;;9.62;100.00;99635.66;5131800;27;20045;-46
2024/03/05 06:49:39;;;;;;;44.03;24.27;;;;;;;9.75;100.00;99639.22;5135401;27;20039;-46
2024/03/05 06:57:40;;;;;;;46.08;25.55;;;;;;;9.93;100.00;99645.09;5135525;27;20050;-47
2024/03/05 07:00:17;;;;;;;44.42;23.30;;;;;;;9.96;100.00;99644.06;5134963;27;20047;-44
2024/03/05 07:02:45;;;;;;;46.17;23.63;;;;;;;9.75;100.00;99654.34;5135284;27;20456;-46
2024/03/05 07:05:15;;;;;;;39.53;23.85;;;;;;;9.84;100.00;99659.03;5135145;27;20047;-45
2024/03/05 07:07:44;;;;;;;40.25;24.20;;;;;;;9.88;100.00;99649.06;5135044;27;20475;-46
2024/03/05 07:10:14;;;;;;;42.55;23.98;;;;;;;9.86;100.00;99654.50;5134963;27;20047;-45
2024/03/05 07:12:44;;;;;;;47.88;24.35;;;;;;;10.07;100.00;99660.19;5134813;27;20043;-45
2024/03/05 07:15:14;;;;;;;45.30;23.95;;;;;;;10.19;100.00;99659.34;5140067;27;20400;-45
2024/03/05 07:17:43;;;;;;;43.97;24.38;;;;;;;10.26;100.00;99666.00;5140318;27;20483;-44
2024/03/05 07:20:18;;;;;;;46.45;24.55;;;;;;;10.32;100.00;99660.22;5134696;27;20039;-48
2024/03/05 07:22:49;;;;;;;46.42;25.38;;;;;;;10.26;100.00;99666.00;5134630;27;20043;-46
2024/03/05 07:25:18;;;;;;;48.83;25.75;;;;;;;10.22;100.00;99661.81;5134292;27;20255;-47
2024/03/05 07:27:48;;;;;;;46.15;25.20;;;;;;;10.14;100.00;99672.16;5134583;27;20563;-47
2024/03/05 07:30:17;;;;;;;45.83;27.63;;;;;;;10.15;100.00;99670.34;5134587;27;20058;-45
2024/03/05 07:32:46;;;;;;;51.33;26.63;;;;;;;10.17;100.00;99671.94;5134543;27;20043;-45
2024/03/05 07:35:15;;;;;;;51.83;26.23;;;;;;;10.37;100.00;99675.09;5134367;27;20463;-47
2024/03/05 07:37:46;;;;;;;45.33;25.58;;;;;;;10.45;100.00;99673.59;5134363;27;20043;-45
2024/03/05 07:40:17;;;;;;;45.25;25.20;;;;;;;10.51;100.00;99673.16;5134489;27;20043;-46
2024/03/05 07:42:51;;;;;;;42.70;23.92;;;;;;;10.42;100.00;99675.59;5134189;27;20548;-48
2024/03/05 07:45:21;;;;;;;39.63;23.13;;;;;;;10.47;100.00;99679.66;5134053;27;20092;-45
2024/03/05 07:47:51;;;;;;;38.25;22.50;;;;;;;10.62;100.00;99679.59;5134127;27;20096;-45
2024/03/05 07:50:19;;;;;;;39.65;22.48;;;;;;;10.57;100.00;99683.41;5126185;27;20492;-45
2024/03/05 07:52:50;;;;;;;35.80;21.05;;;;;;;10.51;100.00;99685.63;5113588;28;20048;-45
2024/03/05 07:55:21;;;;;;;40.85;21.95;;;;;;;10.51;100.00;99683.81;5113407;28;20055;-44
2024/03/05 07:57:58;;;;;;;37.53;21.48;;;;;;;10.26;100.00;99692.66;5113251;28;20131;-47
2024/03/05 08:00:27;;;;;;;39.00;20.73;;;;;;;10.25;100.00;99693.63;5113227;28;20056;-44
2024/03/05 08:02:55;;;;;;;34.83;18.75;;;;;;;10.23;100.00;99692.88;5113167;28;20135;-44
2024/03/05 08:05:26;;;;;;;40.90;21.45;;;;;;;10.39;100.00;99695.34;5113039;28;20112;-46
2024/03/05 08:07:56;;;;;;;31.92;20.65;;;;;;;10.27;100.00;99694.38;5113374;28;20078;-46
2024/03/05 08:10:26;;;;;;;33.28;20.73;;;;;;;10.46;100.00;99698.44;5113257;28;20454;-45
2024/03/05 08:12:56;;;;;;;35.00;21.48;;;;;;;10.38;100.00;99700.78;5113169;28;20070;-45
2024/03/05 08:15:26;;;;;;;32.78;20.25;;;;;;;10.48;100.00;99699.19;5112921;28;20044;-45
2024/03/05 08:17:56;;;;;;;36.28;20.73;;;;;;;10.81;100.00;99704.88;5112798;28;20047;-43
2024/03/05 08:20:26;;;;;;;37.75;20.10;;;;;;;11.06;100.00;99701.31;5112935;28;20040;-46
2024/03/05 08:22:56;;;;;;;35.70;21.55;;;;;;;11.06;99.96;99708.47;5112934;28;20054;-44
2024/03/05 08:25:28;;;;;;;35.90;21.73;;;;;;;11.17;97.87;99709.41;5112765;28;20055;-44
2024/03/05 08:27:58;;;;;;;39.42;21.73;;;;;;;11.24;97.41;99712.50;5112733;28;20059;-45
2024/03/05 08:30:29;;;;;;;32.58;20.20;;;;;;;11.62;95.56;99709.75;5112966;28;20044;-44
2024/03/05 08:33:00;;;;;;;37.50;21.13;;;;;;;11.43;94.51;99714.72;5112647;28;20484;-43
2024/03/05 08:35:29;;;;;;;35.85;21.80;;;;;;;11.50;93.95;99712.47;5112389;28;20492;-45
2024/03/05 08:37:58;;;;;;;40.47;22.50;;;;;;;11.70;92.98;99702.03;5112292;28;20047;-46
2024/03/05 08:40:32;;;;;;;34.58;21.10;;;;;;;12.04;90.48;99713.75;5094751;28;20555;-45
2024/03/05 08:43:03;;;;;;;35.30;19.98;;;;;;;12.05;88.65;99711.94;5112706;28;20361;-43
2024/03/05 08:45:32;;;;;;;33.42;20.27;;;;;;;12.31;88.56;99707.31;5112290;28;20078;-45
2024/03/05 08:48:01;;;;;;;29.08;19.13;;;;;;;12.31;88.15;99709.97;5112264;28;20505;-45
2024/03/05 08:50:30;;;;;;;29.80;19.20;;;;;;;12.38;87.91;99715.72;5112347;28;20393;-42
2024/03/05 08:52:58;;;;;;;34.25;19.50;;;;;;;12.30;87.18;99702.94;5112119;28;20649;-43
2024/03/05 08:55:27;;;;;;;32.58;19.65;;;;;;;12.39;87.33;99710.25;5112378;28;20047;-44
2024/03/05 08:57:57;;;;;;;36.95;20.77;;;;;;;12.32;86.80;99719.72;5112509;28;20054;-44
2024/03/05 09:00:26;;;;;;;32.35;19.33;;;;;;;12.42;86.95;99714.50;5112006;28;20124;-45
2024/03/05 09:03:10;;;;;;;31.38;19.60;;;;;;;12.42;86.74;99711.84;5111780;28;20071;-44
2024/03/05 09:05:39;;;;;;;34.20;20.13;;;;;;;12.75;85.10;99719.13;5111689;28;20077;-44
2024/03/05 09:08:11;;;;;;;29.90;18.33;;;;;;;12.99;84.00;99714.50;5111868;28;20462;-48
2024/03/05 09:10:39;;;;;;;28.30;18.33;;;;;;;12.96;82.57;99712.06;5111254;28;20127;-44
2024/03/05 09:13:09;;;;;;;29.83;18.90;;;;;;;13.17;82.46;99705.03;5111772;28;20128;-44
2024/03/05 09:15:38;;;;;;;29.65;18.60;;;;;;;13.41;81.44;99709.41;5111669;28;20126;-45
2024/03/05 09:18:13;;;;;;;35.00;18.17;;;;;;;13.37;80.41;99711.50;5111544;28;20054;-44
2024/03/05 09:20:43;;;;;;;30.52;18.55;;;;;;;13.48;79.32;99713.31;5111713;28;20086;-43
2024/03/05 09:23:12;;;;;;;31.52;18.38;;;;;;;13.75;78.55;99703.03;5111726;28;20044;-45
2024/03/05 09:25:41;;;;;;;32.05;18.67;;;;;;;13.95;78.23;99708.56;5111707;28;20051;-44
2024/03/05 09:28:12;;;;;;;28.90;17.48;;;;;;;14.09;77.95;99702.94;5111829;28;20401;-46
2024/03/05 09:30:41;;;;;;;29.67;17.48;;;;;;;14.21;76.78;99701.91;5111564;28;20486;-45
2024/03/05 09:33:09;;;;;;;35.15;19.17;;;;;;;14.37;76.31;99704.13;5112002;28;20386;-45
2024/03/05 09:35:39;;;;;;;30.38;18.33;;;;;;;14.45;75.89;99708.88;5112303;28;20116;-45
2024/03/05 09:38:08;;;;;;;29.73;18.25;;;;;;;14.47;75.36;99698.88;5111965;28;20089;-47
2024/03/05 09:40:38;;;;;;;30.02;17.88;;;;;;;14.36;74.23;99704.25;5111714;28;20105;-45
2024/03/05 09:43:08;;;;;;;27.42;17.90;;;;;;;14.32;75.54;99696.47;5111467;28;20047;-44
2024/03/05 09:45:38;;;;;;;27.23;18.13;;;;;;;14.37;74.25;99698.75;5111621;28;20055;-43
2024/03/05 09:48:08;;;;;;;29.25;18.10;;;;;;;14.63;73.84;99696.59;5111561;28;20053;-42
2024/03/05 09:50:37;;;;;;;29.17;16.48;;;;;;;14.84;73.36;99700.09;5111544;28;20121;-43
2024/03/05 09:53:06;;;;;;;24.55;16.90;;;;;;;15.01;72.26;99700.47;5111151;28;20052;-49
2024/03/05 09:55:35;;;;;;;27.33;16.40;;;;;;;15.10;71.80;99695.16;5111217;28;20054;-45
2024/03/05 09:58:09;;;;;;;28.35;16.17;;;;;;;15.06;71.02;99703.63;5111215;28;20047;-45
2024/03/05 10:00:39;;;;;;;27.67;16.08;;;;;;;15.30;70.54;99698.75;5111349;28;20197;-45
2024/03/05 10:03:08;;;;;;;32.90;17.15;;;;;;;15.48;69.92;99706.19;5111491;28;20046;-44
2024/03/05 10:05:37;;;;;;;24.42;15.95;;;;;;;15.56;69.80;99695.59;5119456;28;20039;-46
2024/03/05 10:08:06;;;;;;;29.92;15.85;;;;;;;15.46;68.01;99704.50;5111040;28;20050;-45
2024/03/05 10:10:34;;;;;;;25.45;15.32;;;;;;;15.60;67.78;99697.00;5119422;28;20438;-43
2024/03/05 10:13:03;;;;;;;27.17;15.10;;;;;;;15.70;67.46;99695.22;5120429;27;20078;-45
2024/03/05 10:15:34;;;;;;;25.45;13.80;;;;;;;15.78;65.98;99695.41;5119902;28;20048;-45
2024/03/05 10:18:07;;;;;;;22.95;15.13;;;;;;;15.89;66.19;99692.56;5120223;28;20039;-47
2024/03/05 10:20:37;;;;;;;;;;;;;;;15.96;65.93;99699.09;5119999;28;20498;-46
2024/03/05 10:23:07;;;;;;;26.05;14.82;;;;;;;15.89;65.41;99702.47;5123306;27;19931;-46
2024/03/05 10:25:36;;;;;;;25.02;14.82;;;;;;;15.87;64.91;99693.72;5125718;27;20055;-46
2024/03/05 10:28:08;;;;;;;24.95;15.18;;;;;;;15.94;65.32;99701.09;5124458;27;20036;-46
2024/03/05 10:30:37;;;;;;;24.17;13.95;;;;;;;15.94;64.84;99698.41;5123846;27;20043;-47
2024/03/05 10:33:08;;;;;;;23.30;14.70;;;;;;;16.02;64.76;99697.72;5125045;27;20533;-46
2024/03/05 10:35:37;;;;;;;25.65;15.05;;;;;;;16.12;64.34;99703.94;5126113;27;20129;-46
2024/03/05 10:38:10;;;;;;;24.92;15.15;;;;;;;16.19;63.89;99704.19;5123447;27;20040;-43
2024/03/05 10:40:39;;;;;;;33.53;18.70;;;;;;;16.24;64.25;99710.03;5114951;28;20614;-46
2024/03/05 10:43:10;;;;;;;25.45;15.70;;;;;;;15.90;63.96;99704.19;5115016;28;20043;-45
2024/03/05 10:45:39;;;;;;;21.52;14.93;;;;;;;16.20;63.67;99701.38;5114896;28;20044;-46
2024/03/05 10:48:14;;;;;;;24.30;15.45;;;;;;;16.18;62.98;99700.66;5114817;28;20472;-45
2024/03/05 10:50:45;;;;;;;24.48;14.20;;;;;;;16.18;62.90;99697.13;5115056;28;20051;-46
2024/03/05 10:53:16;;;;;;;22.00;14.63;;;;;;;16.18;62.39;99697.13;5115015;28;20357;-46
2024/03/05 10:55:45;;;;;;;22.17;12.73;;;;;;;16.40;62.40;99694.13;5114909;28;20074;-47
2024/03/05 10:58:36;;;;;;;19.23;12.57;;;;;;;16.16;60.84;99694.59;5114698;28;20058;-44
2024/03/05 11:01:06;;;;;;;19.23;11.98;;;;;;;16.25;61.07;99692.88;5114420;28;20052;-44
2024/03/05 11:03:39;;;;;;;21.20;12.25;;;;;;;16.47;60.60;99694.41;5114447;28;20043;-44
2024/03/05 11:06:10;;;;;;;11.00;6.43;;;;;;;17.07;72.18;99692.31;5114447;28;20075;-45
2024/03/05 11:08:38;;;;;;;19.45;11.32;;;;;;;16.67;61.12;99698.78;5114399;28;20097;-46
2024/03/05 11:11:11;;;;;;;18.10;10.88;;;;;;;16.68;58.56;99696.94;5114101;28;20440;-46
2024/03/05 11:13:41;;;;;;;17.42;11.82;;;;;;;16.59;59.26;99691.41;5114364;28;20130;-44
2024/03/05 11:16:10;;;;;;;18.50;11.75;;;;;;;16.45;58.86;99689.19;5114376;28;20047;-47
2024/03/05 11:18:40;;;;;;;21.05;10.98;;;;;;;16.51;58.69;99694.00;5114202;28;20481;-45
2024/03/05 11:21:10;;;;;;;18.75;10.85;;;;;;;16.39;57.63;99689.75;5114265;28;20048;-45
2024/03/05 11:23:55;;;;;;;19.25;11.05;;;;;;;16.45;57.92;99689.19;5114068;28;20044;-46
2024/03/05 11:26:25;;;;;;;19.45;10.30;;;;;;;16.54;57.06;99688.31;5114074;28;20051;-44
2024/03/05 11:29:02;;;;;;;17.73;9.80;;;;;;;16.63;56.89;99685.78;5113964;28;20111;-45
2024/03/05 11:31:30;;;;;;;15.23;8.85;;;;;;;16.67;55.56;99690.72;5113874;28;20053;-46
2024/03/05 11:34:12;;;;;;;16.30;9.57;;;;;;;16.60;55.81;99693.16;5113893;28;20052;-46